createdAt,value
2023-02-13T00:00:40.593Z,0
2023-02-13T00:01:40.592Z,0
2023-02-13T00:02:40.576Z,0
2023-02-13T00:03:40.564Z,0
2023-02-13T00:04:40.567Z,0
2023-02-13T00:05:40.551Z,0
2023-02-13T00:06:40.530Z,0
2023-02-13T00:07:40.528Z,0
2023-02-13T00:08:40.507Z,0
2023-02-13T00:09:40.502Z,0
2023-02-13T00:10:40.488Z,0
2023-02-13T00:11:40.476Z,0
2023-02-13T00:12:40.472Z,0
2023-02-13T00:13:40.472Z,0
2023-02-13T00:14:40.456Z,0
2023-02-13T00:15:40.435Z,0
2023-02-13T00:16:40.437Z,0
2023-02-13T00:17:40.419Z,0
2023-02-13T00:18:40.408Z,0
2023-02-13T00:19:40.408Z,0
2023-02-13T00:20:40.388Z,0
2023-02-13T00:21:40.376Z,0
2023-02-13T00:22:40.355Z,0
2023-02-13T00:23:48.922Z,0
2023-02-13T00:24:47.926Z,0
2023-02-13T00:25:48.905Z,0
2023-02-13T00:26:47.902Z,0
2023-02-13T00:27:40.302Z,0
2023-02-13T00:28:40.318Z,0
2023-02-13T00:29:40.288Z,0
2023-02-13T00:30:40.272Z,0
2023-02-13T00:31:40.297Z,0
2023-02-13T00:32:40.259Z,0
2023-02-13T00:33:40.244Z,0
2023-02-13T00:34:40.240Z,0
2023-02-13T00:35:40.222Z,0
2023-02-13T00:36:40.212Z,0
2023-02-13T00:37:40.200Z,0
2023-02-13T00:38:40.203Z,0
2023-02-13T00:39:40.178Z,0
2023-02-13T00:40:40.166Z,0
2023-02-13T00:41:40.154Z,0
2023-02-13T00:42:40.152Z,0
2023-02-13T00:43:40.134Z,0
2023-02-13T00:44:40.123Z,0
2023-02-13T00:45:40.112Z,0
2023-02-13T00:46:40.125Z,0
2023-02-13T00:47:40.101Z,0
2023-02-13T00:48:40.087Z,0
2023-02-13T00:49:40.076Z,0
2023-02-13T00:50:40.082Z,0
2023-02-13T00:51:40.053Z,0
2023-02-13T00:52:40.040Z,0
2023-02-13T00:53:40.026Z,0
2023-02-13T00:54:40.013Z,0
2023-02-13T00:55:40.013Z,0
2023-02-13T00:56:39.995Z,0
2023-02-13T00:57:39.986Z,0
2023-02-13T00:58:39.977Z,0
2023-02-13T00:59:39.970Z,0
2023-02-13T01:00:39.952Z,0
2023-02-13T01:01:39.941Z,0
2023-02-13T01:02:39.933Z,0
2023-02-13T01:03:39.915Z,0
2023-02-13T01:04:39.926Z,0
2023-02-13T01:05:39.909Z,0
2023-02-13T01:06:39.884Z,0
2023-02-13T01:07:39.879Z,0
2023-02-13T01:08:39.860Z,0
2023-02-13T01:09:40.811Z,0
2023-02-13T01:10:39.867Z,0
2023-02-13T01:11:39.836Z,0
2023-02-13T01:12:39.818Z,0
2023-02-13T01:13:39.812Z,0
2023-02-13T01:14:40.315Z,0
2023-02-13T01:15:39.786Z,0
2023-02-13T01:16:39.786Z,0
2023-02-13T01:17:39.776Z,0
2023-02-13T01:18:39.754Z,0
2023-02-13T01:19:39.774Z,0
2023-02-13T01:20:39.732Z,0
2023-02-13T01:21:39.732Z,0
2023-02-13T01:22:39.714Z,0
2023-02-13T01:23:39.703Z,0
2023-02-13T01:24:39.695Z,0
2023-02-13T01:25:39.682Z,0
2023-02-13T01:26:39.674Z,0
2023-02-13T01:27:39.670Z,0
2023-02-13T01:28:39.650Z,0
2023-02-13T01:29:39.637Z,0
2023-02-13T01:30:39.625Z,0
2023-02-13T01:31:39.616Z,0
2023-02-13T01:32:39.605Z,0
2023-02-13T01:33:39.597Z,0
2023-02-13T01:34:39.611Z,0
2023-02-13T01:35:39.569Z,0
2023-02-13T01:36:39.584Z,0
2023-02-13T01:37:39.551Z,0
2023-02-13T01:38:39.540Z,0
2023-02-13T01:39:39.533Z,0
2023-02-13T01:40:39.518Z,0
2023-02-13T01:41:39.514Z,0
2023-02-13T01:42:39.492Z,0
2023-02-13T01:43:39.493Z,0
2023-02-13T01:44:39.475Z,0
2023-02-13T01:45:39.468Z,0
2023-02-13T01:46:39.453Z,0
2023-02-13T01:47:39.453Z,0
2023-02-13T01:48:39.440Z,0
2023-02-13T01:49:39.420Z,0
2023-02-13T01:50:39.408Z,0
2023-02-13T01:51:39.406Z,0
2023-02-13T01:52:39.386Z,0
2023-02-13T01:53:39.374Z,0
2023-02-13T01:54:39.366Z,0
2023-02-13T01:55:39.352Z,0
2023-02-13T01:56:39.351Z,0
2023-02-13T01:57:39.336Z,0
2023-02-13T01:58:39.325Z,0
2023-02-13T01:59:39.311Z,0
2023-02-13T02:00:39.308Z,0
2023-02-13T02:01:39.298Z,0
2023-02-13T02:02:39.287Z,0
2023-02-13T02:03:39.272Z,0
2023-02-13T02:04:39.267Z,0
2023-02-13T02:05:39.252Z,0
2023-02-13T02:06:39.255Z,0
2023-02-13T02:07:39.227Z,0
2023-02-13T02:08:39.224Z,0
2023-02-13T02:09:39.214Z,0
2023-02-13T02:10:39.209Z,0
2023-02-13T02:11:39.193Z,0
2023-02-13T02:12:39.172Z,0
2023-02-13T02:13:39.163Z,0
2023-02-13T02:14:39.164Z,0
2023-02-13T02:15:39.136Z,0
2023-02-13T02:16:39.137Z,0
2023-02-13T02:17:39.134Z,0
2023-02-13T02:18:39.104Z,0
2023-02-13T02:19:39.095Z,0
2023-02-13T02:20:39.095Z,0
2023-02-13T02:21:39.072Z,0
2023-02-13T02:22:39.071Z,0
2023-02-13T02:23:39.059Z,0
2023-02-13T02:24:39.051Z,0
2023-02-13T02:25:39.028Z,0
2023-02-13T02:26:39.018Z,0
2023-02-13T02:27:39.010Z,0
2023-02-13T02:28:39.009Z,0
2023-02-13T02:29:38.986Z,0
2023-02-13T02:30:38.978Z,0
2023-02-13T02:31:38.963Z,0
2023-02-13T02:32:38.959Z,0
2023-02-13T02:33:38.950Z,0
2023-02-13T02:34:38.940Z,0
2023-02-13T02:35:38.939Z,0
2023-02-13T02:36:38.920Z,0
2023-02-13T02:37:38.906Z,0
2023-02-13T02:38:38.899Z,0
2023-02-13T02:39:38.883Z,0
2023-02-13T02:40:38.871Z,0
2023-02-13T02:41:38.865Z,0
2023-02-13T02:42:38.852Z,0
2023-02-13T02:43:38.845Z,0
2023-02-13T02:44:38.830Z,0
2023-02-13T02:45:38.824Z,0
2023-02-13T02:46:38.807Z,0
2023-02-13T02:47:38.794Z,0
2023-02-13T02:48:38.799Z,0
2023-02-13T02:49:38.787Z,0
2023-02-13T02:50:38.769Z,0
2023-02-13T02:51:38.762Z,0
2023-02-13T02:52:38.742Z,0
2023-02-13T02:53:38.733Z,0
2023-02-13T02:54:38.723Z,0
2023-02-13T02:55:38.708Z,0
2023-02-13T02:56:38.698Z,0
2023-02-13T02:57:38.709Z,0
2023-02-13T02:58:38.680Z,0
2023-02-13T02:59:38.668Z,0
2023-02-13T03:00:38.656Z,0
2023-02-13T03:01:38.643Z,0
2023-02-13T03:02:38.644Z,0
2023-02-13T03:03:38.645Z,0
2023-02-13T03:04:38.611Z,0
2023-02-13T03:05:38.601Z,0
2023-02-13T03:06:38.617Z,0
2023-02-13T03:07:38.588Z,0
2023-02-13T03:08:38.577Z,0
2023-02-13T03:09:38.571Z,0
2023-02-13T03:10:38.554Z,0
2023-02-13T03:11:38.539Z,0
2023-02-13T03:12:38.527Z,0
2023-02-13T03:13:38.520Z,0
2023-02-13T03:14:38.518Z,0
2023-02-13T03:15:38.495Z,0
2023-02-13T03:16:38.491Z,0
2023-02-13T03:17:46.058Z,0
2023-02-13T03:18:38.468Z,0
2023-02-13T03:19:46.044Z,0
2023-02-13T03:20:38.441Z,0
2023-02-13T03:21:47.078Z,0
2023-02-13T03:22:38.425Z,0
2023-02-13T03:23:38.414Z,0
2023-02-13T03:24:38.404Z,0
2023-02-13T03:25:38.393Z,0
2023-02-13T03:26:38.383Z,0
2023-02-13T03:27:38.370Z,0
2023-02-13T03:28:38.356Z,0
2023-02-13T03:29:38.356Z,0
2023-02-13T03:30:38.339Z,0
2023-02-13T03:31:38.324Z,0
2023-02-13T03:32:38.322Z,0
2023-02-13T03:33:38.309Z,0
2023-02-13T03:34:38.297Z,0
2023-02-13T03:35:38.282Z,0
2023-02-13T03:36:38.278Z,0
2023-02-13T03:37:38.269Z,0
2023-02-13T03:38:38.253Z,0
2023-02-13T03:39:38.242Z,0
2023-02-13T03:40:38.228Z,0
2023-02-13T03:41:38.221Z,0
2023-02-13T03:42:38.211Z,0
2023-02-13T03:43:38.208Z,0
2023-02-13T03:44:38.186Z,0
2023-02-13T03:45:38.191Z,0
2023-02-13T03:46:38.183Z,0
2023-02-13T03:47:38.160Z,0
2023-02-13T03:48:38.155Z,0
2023-02-13T03:49:38.155Z,0
2023-02-13T03:50:38.132Z,0
2023-02-13T03:51:38.117Z,0
2023-02-13T03:52:38.101Z,0
2023-02-13T03:53:38.096Z,0
2023-02-13T03:54:38.107Z,0
2023-02-13T03:55:38.076Z,0
2023-02-13T03:56:38.062Z,0
2023-02-13T03:57:38.054Z,0
2023-02-13T03:58:38.046Z,0
2023-02-13T03:59:38.030Z,0
2023-02-13T04:00:38.026Z,0
2023-02-13T04:01:38.033Z,0
2023-02-13T04:02:37.997Z,0
2023-02-13T04:03:38.010Z,0
2023-02-13T04:04:37.982Z,0
2023-02-13T04:05:37.970Z,0
2023-02-13T04:06:37.961Z,0
2023-02-13T04:07:37.951Z,0
2023-02-13T04:08:37.944Z,0
2023-02-13T04:09:37.939Z,0
2023-02-13T04:10:37.911Z,0
2023-02-13T04:11:37.916Z,0
2023-02-13T04:12:37.894Z,0
2023-02-13T04:13:37.880Z,0
2023-02-13T04:14:37.875Z,0
2023-02-13T04:15:37.864Z,0
2023-02-13T04:16:37.851Z,0
2023-02-13T04:17:37.846Z,0
2023-02-13T04:18:37.831Z,0
2023-02-13T04:19:37.818Z,0
2023-02-13T04:20:37.826Z,0
2023-02-13T04:21:37.804Z,0
2023-02-13T04:22:37.792Z,0
2023-02-13T04:23:37.784Z,0
2023-02-13T04:24:37.765Z,0
2023-02-13T04:25:37.761Z,0
2023-02-13T04:26:37.747Z,0
2023-02-13T04:27:37.743Z,0
2023-02-13T04:28:37.733Z,0
2023-02-13T04:29:37.713Z,0
2023-02-13T04:30:37.715Z,0
2023-02-13T04:31:37.690Z,0
2023-02-13T04:32:37.685Z,0
2023-02-13T04:33:37.678Z,0
2023-02-13T04:34:37.671Z,0
2023-02-13T04:35:37.648Z,0
2023-02-13T04:36:37.642Z,0
2023-02-13T04:37:37.627Z,0
2023-02-13T04:38:37.622Z,0
2023-02-13T04:39:37.607Z,0
2023-02-13T04:40:37.622Z,0
2023-02-13T04:41:37.586Z,0
2023-02-13T04:42:37.601Z,0
2023-02-13T04:43:37.580Z,0
2023-02-13T04:44:37.560Z,0
2023-02-13T04:45:37.555Z,0
2023-02-13T04:46:37.535Z,0
2023-02-13T04:47:37.527Z,0
2023-02-13T04:48:37.511Z,0
2023-02-13T04:49:37.498Z,0
2023-02-13T04:50:37.495Z,0
2023-02-13T04:51:37.490Z,0
2023-02-13T04:52:37.470Z,0
2023-02-13T04:53:45.024Z,0
2023-02-13T04:54:45.037Z,0
2023-02-13T04:55:45.033Z,0
2023-02-13T04:56:45.017Z,0
2023-02-13T04:57:37.432Z,0
2023-02-13T04:58:37.405Z,0
2023-02-13T04:59:37.399Z,0
2023-02-13T05:00:37.382Z,0
2023-02-13T05:01:37.375Z,0
2023-02-13T05:02:37.375Z,0
2023-02-13T05:03:37.365Z,0
2023-02-13T05:04:37.343Z,0
2023-02-13T05:05:37.332Z,0
2023-02-13T05:06:37.326Z,0
2023-02-13T05:07:37.305Z,0
2023-02-13T05:08:37.306Z,0
2023-02-13T05:09:37.286Z,0
2023-02-13T05:10:37.279Z,0
2023-02-13T05:11:37.263Z,0
2023-02-13T05:12:37.257Z,0
2023-02-13T05:13:37.246Z,0
2023-02-13T05:14:37.236Z,0
2023-02-13T05:15:37.222Z,0
2023-02-13T05:16:37.213Z,0
2023-02-13T05:17:37.205Z,0
2023-02-13T05:18:37.188Z,0
2023-02-13T05:19:37.187Z,0
2023-02-13T05:20:37.188Z,0
2023-02-13T05:21:37.159Z,0
2023-02-13T05:22:37.156Z,0
2023-02-13T05:23:37.148Z,0
2023-02-13T05:24:37.128Z,0
2023-02-13T05:25:37.132Z,0
2023-02-13T05:26:44.692Z,0
2023-02-13T05:27:44.686Z,0
2023-02-13T05:28:44.664Z,0
2023-02-13T05:29:44.647Z,0
2023-02-13T05:30:37.065Z,0
2023-02-13T05:31:44.627Z,0
2023-02-13T05:32:45.637Z,0
2023-02-13T05:33:44.598Z,0
2023-02-13T05:34:37.023Z,0
2023-02-13T05:35:45.600Z,0
2023-02-13T05:36:45.847Z,0
2023-02-13T05:37:44.571Z,0
2023-02-13T05:38:44.572Z,0
2023-02-13T05:39:45.590Z,0
2023-02-13T05:40:44.564Z,0
2023-02-13T05:41:46.315Z,0
2023-02-13T05:42:36.944Z,0
2023-02-13T05:43:44.501Z,0
2023-02-13T05:44:44.520Z,0
2023-02-13T05:45:44.504Z,0
2023-02-13T05:46:45.482Z,0
2023-02-13T05:47:44.760Z,0
2023-02-13T05:48:45.730Z,0
2023-02-13T05:49:44.438Z,0
2023-02-13T05:50:36.853Z,0
2023-02-13T05:51:44.413Z,0
2023-02-13T05:52:44.400Z,0
2023-02-13T05:53:44.406Z,0
2023-02-13T05:54:44.402Z,0
2023-02-13T05:55:36.816Z,0
2023-02-13T05:56:36.792Z,0
2023-02-13T05:58:54.351Z,0
2023-02-13T06:00:01.923Z,0
2023-02-13T06:01:02.930Z,0
2023-02-13T06:01:54.312Z,0
2023-02-13T06:03:02.927Z,0
2023-02-13T06:03:54.291Z,0
2023-02-13T06:05:02.909Z,0
2023-02-13T06:05:54.280Z,0
2023-02-13T06:06:54.282Z,0
2023-02-13T06:08:01.838Z,0
2023-02-13T06:08:54.242Z,0
2023-02-13T06:09:54.235Z,0
2023-02-13T06:10:54.231Z,0
2023-02-13T06:11:54.216Z,0
2023-02-13T06:12:54.214Z,0
2023-02-13T06:13:54.199Z,0
2023-02-13T06:15:01.768Z,0
2023-02-13T06:15:54.189Z,0
2023-02-13T06:17:01.732Z,0
2023-02-13T06:17:54.154Z,0
2023-02-13T06:18:54.141Z,0
2023-02-13T06:19:54.127Z,0
2023-02-13T06:21:02.707Z,0
2023-02-13T06:21:54.109Z,0
2023-02-13T06:22:54.123Z,0
2023-02-13T06:23:54.106Z,0
2023-02-13T06:24:54.085Z,0
2023-02-13T06:25:54.065Z,0
2023-02-13T06:26:54.062Z,0
2023-02-13T06:27:54.054Z,0
2023-02-13T06:28:54.034Z,0
2023-02-13T06:29:54.024Z,0
2023-02-13T06:30:54.015Z,0
2023-02-13T06:31:54.004Z,0
2023-02-13T06:32:54.003Z,0
2023-02-13T06:33:53.984Z,0
2023-02-13T06:34:53.976Z,0
2023-02-13T06:35:53.969Z,0
2023-02-13T06:36:53.951Z,0
2023-02-13T06:37:53.938Z,0
2023-02-13T06:38:53.946Z,0
2023-02-13T06:39:53.924Z,0
2023-02-13T06:40:53.920Z,0
2023-02-13T06:41:53.906Z,0
2023-02-13T06:42:53.888Z,0
2023-02-13T06:43:53.890Z,0
2023-02-13T06:44:53.864Z,0
2023-02-13T06:45:53.894Z,0
2023-02-13T06:46:53.856Z,0
2023-02-13T06:47:53.849Z,0
2023-02-13T06:48:53.832Z,0
2023-02-13T06:49:53.818Z,0
2023-02-13T06:50:53.805Z,0
2023-02-13T06:51:53.795Z,0
2023-02-13T06:52:53.794Z,0
2023-02-13T06:53:53.782Z,0
2023-02-13T06:54:53.762Z,0
2023-02-13T06:55:53.758Z,0
2023-02-13T06:56:53.746Z,0
2023-02-13T06:57:53.735Z,0
2023-02-13T06:58:53.722Z,0
2023-02-13T06:59:53.731Z,0
2023-02-13T07:00:53.707Z,0
2023-02-13T07:01:53.695Z,0
2023-02-13T07:02:53.681Z,0
2023-02-13T07:03:53.683Z,0
2023-02-13T07:04:53.670Z,0
2023-02-13T07:05:53.647Z,0
2023-02-13T07:06:53.680Z,0
2023-02-13T07:07:53.631Z,0
2023-02-13T07:08:53.621Z,0
2023-02-13T07:09:53.606Z,0
2023-02-13T07:10:53.600Z,0
2023-02-13T07:11:53.590Z,0
2023-02-13T07:12:53.580Z,0
2023-02-13T07:13:53.590Z,0
2023-02-13T07:14:53.557Z,0
2023-02-13T07:15:53.551Z,0
2023-02-13T07:16:53.551Z,5.62
2023-02-13T07:17:53.559Z,5.62
2023-02-13T07:18:53.518Z,5.62
2023-02-13T07:19:53.502Z,5.62
2023-02-13T07:20:53.498Z,5.62
2023-02-13T07:21:53.501Z,5.62
2023-02-13T07:22:53.476Z,5.62
2023-02-13T07:23:53.468Z,5.62
2023-02-13T07:24:53.456Z,5.62
2023-02-13T07:25:53.460Z,5.62
2023-02-13T07:26:53.434Z,5.62
2023-02-13T07:27:53.423Z,5.62
2023-02-13T07:28:53.412Z,5.62
2023-02-13T07:29:53.410Z,5.62
2023-02-13T07:30:53.393Z,5.62
2023-02-13T07:31:53.450Z,5.62
2023-02-13T07:32:53.375Z,5.62
2023-02-13T07:33:53.359Z,5.62
2023-02-13T07:34:53.353Z,5.62
2023-02-13T07:35:53.381Z,5.62
2023-02-13T07:36:53.334Z,5.62
2023-02-13T07:37:53.340Z,5.62
2023-02-13T07:38:53.318Z,5.62
2023-02-13T07:39:53.295Z,5.62
2023-02-13T07:40:53.285Z,5.62
2023-02-13T07:41:53.282Z,11.25
2023-02-13T07:42:53.280Z,11.25
2023-02-13T07:43:53.255Z,11.25
2023-02-13T07:44:53.256Z,11.25
2023-02-13T07:45:53.235Z,11.25
2023-02-13T07:46:53.224Z,11.25
2023-02-13T07:47:53.217Z,11.25
2023-02-13T07:48:53.222Z,11.25
2023-02-13T07:49:53.192Z,11.25
2023-02-13T07:50:53.179Z,11.25
2023-02-13T07:51:53.174Z,11.25
2023-02-13T07:52:53.214Z,11.25
2023-02-13T07:53:53.160Z,11.25
2023-02-13T07:54:53.152Z,11.25
2023-02-13T07:55:53.130Z,11.25
2023-02-13T07:56:53.182Z,11.25
2023-02-13T07:57:53.106Z,11.25
2023-02-13T07:58:53.097Z,11.25
2023-02-13T07:59:53.092Z,11.25
2023-02-13T08:00:53.107Z,11.25
2023-02-13T08:01:53.065Z,11.25
2023-02-13T08:02:53.054Z,11.25
2023-02-13T08:03:53.052Z,11.25
2023-02-13T08:04:53.038Z,11.25
2023-02-13T08:05:53.028Z,11.25
2023-02-13T08:06:53.016Z,11.25
2023-02-13T08:07:53.006Z,11.25
2023-02-13T08:08:52.995Z,11.25
2023-02-13T08:09:52.984Z,11.25
2023-02-13T08:10:52.976Z,16.88
2023-02-13T08:11:52.967Z,16.88
2023-02-13T08:12:52.952Z,16.88
2023-02-13T08:13:52.947Z,16.88
2023-02-13T08:14:52.978Z,11.25
2023-02-13T08:15:52.923Z,11.25
2023-02-13T08:16:52.930Z,11.25
2023-02-13T08:17:52.915Z,11.25
2023-02-13T08:18:52.895Z,11.25
2023-02-13T08:19:52.883Z,11.25
2023-02-13T08:20:52.899Z,11.25
2023-02-13T08:21:52.858Z,11.25
2023-02-13T08:22:52.856Z,11.25
2023-02-13T08:23:52.843Z,11.25
2023-02-13T08:24:52.858Z,11.25
2023-02-13T08:25:52.827Z,11.25
2023-02-13T08:26:52.814Z,11.25
2023-02-13T08:27:52.798Z,11.25
2023-02-13T08:28:52.794Z,11.25
2023-02-13T08:29:52.784Z,11.25
2023-02-13T08:30:52.770Z,11.25
2023-02-13T08:31:52.758Z,11.25
2023-02-13T08:32:52.744Z,11.25
2023-02-13T08:33:52.754Z,11.25
2023-02-13T08:34:52.775Z,16.88
2023-02-13T08:35:52.718Z,16.88
2023-02-13T08:36:52.718Z,16.88
2023-02-13T08:37:52.701Z,16.88
2023-02-13T08:38:52.687Z,16.88
2023-02-13T08:39:52.681Z,16.88
2023-02-13T08:40:52.678Z,16.88
2023-02-13T08:41:52.657Z,16.88
2023-02-13T08:42:52.649Z,16.88
2023-02-13T08:43:52.634Z,16.88
2023-02-13T08:44:52.654Z,16.88
2023-02-13T08:45:52.624Z,16.88
2023-02-13T08:46:52.611Z,16.88
2023-02-13T08:47:52.599Z,16.88
2023-02-13T08:48:52.586Z,16.88
2023-02-13T08:49:52.583Z,16.88
2023-02-13T08:50:52.569Z,16.88
2023-02-13T08:51:52.550Z,16.88
2023-02-13T08:52:52.540Z,16.88
2023-02-13T08:53:52.535Z,16.88
2023-02-13T08:54:52.518Z,22.5
2023-02-13T08:55:52.509Z,22.5
2023-02-13T08:56:52.498Z,22.5
2023-02-13T08:57:52.487Z,22.5
2023-02-13T08:58:52.478Z,22.5
2023-02-13T08:59:52.478Z,22.5
2023-02-13T09:00:52.488Z,22.5
2023-02-13T09:01:52.448Z,22.5
2023-02-13T09:02:52.440Z,28.12
2023-02-13T09:03:52.434Z,28.12
2023-02-13T09:04:52.428Z,28.12
2023-02-13T09:05:52.418Z,28.12
2023-02-13T09:06:52.412Z,28.12
2023-02-13T09:07:52.385Z,28.12
2023-02-13T09:08:52.386Z,28.12
2023-02-13T09:09:52.367Z,33.75
2023-02-13T09:10:52.358Z,33.75
2023-02-13T09:11:52.351Z,33.75
2023-02-13T09:12:52.341Z,33.75
2023-02-13T09:13:52.336Z,33.75
2023-02-13T09:14:52.326Z,33.75
2023-02-13T09:15:52.301Z,33.75
2023-02-13T09:16:52.294Z,33.75
2023-02-13T09:17:52.306Z,33.75
2023-02-13T09:18:52.283Z,33.75
2023-02-13T09:19:52.258Z,33.75
2023-02-13T09:20:52.256Z,33.75
2023-02-13T09:21:52.237Z,33.75
2023-02-13T09:22:52.228Z,39.38
2023-02-13T09:23:52.225Z,39.38
2023-02-13T09:24:52.271Z,33.75
2023-02-13T09:25:52.205Z,33.75
2023-02-13T09:26:52.192Z,33.75
2023-02-13T09:27:52.189Z,33.75
2023-02-13T09:28:52.223Z,33.75
2023-02-13T09:29:52.159Z,33.75
2023-02-13T09:30:52.155Z,33.75
2023-02-13T09:31:52.140Z,33.75
2023-02-13T09:32:52.165Z,33.75
2023-02-13T09:33:52.122Z,33.75
2023-02-13T09:34:52.146Z,33.75
2023-02-13T09:35:52.096Z,39.38
2023-02-13T09:36:52.102Z,39.38
2023-02-13T09:37:52.090Z,39.38
2023-02-13T09:38:52.063Z,39.38
2023-02-13T09:39:53.185Z,39.38
2023-02-13T09:40:52.047Z,39.38
2023-02-13T09:41:52.043Z,39.38
2023-02-13T09:42:52.032Z,45
2023-02-13T09:43:52.021Z,45
2023-02-13T09:44:52.003Z,45
2023-02-13T09:45:52.000Z,45
2023-02-13T09:46:51.981Z,45
2023-02-13T09:47:52.023Z,45
2023-02-13T09:48:51.965Z,39.38
2023-02-13T09:49:51.945Z,39.38
2023-02-13T09:50:51.972Z,39.38
2023-02-13T09:51:51.936Z,39.38
2023-02-13T09:52:51.915Z,45
2023-02-13T09:53:51.905Z,45
2023-02-13T09:54:51.889Z,45
2023-02-13T09:55:51.887Z,45
2023-02-13T09:56:51.878Z,45
2023-02-13T09:57:51.869Z,45
2023-02-13T09:58:51.853Z,45
2023-02-13T09:59:51.846Z,45
2023-02-13T10:00:51.834Z,45
2023-02-13T10:01:51.816Z,45
2023-02-13T10:02:51.819Z,45
2023-02-13T10:03:51.804Z,45
2023-02-13T10:04:51.791Z,45
2023-02-13T10:05:51.791Z,45
2023-02-13T10:06:51.774Z,45
2023-02-13T10:07:51.765Z,45
2023-02-13T10:08:51.746Z,45
2023-02-13T10:09:53.058Z,45
2023-02-13T10:10:51.725Z,50.62
2023-02-13T10:11:51.715Z,50.62
2023-02-13T10:12:51.714Z,50.62
2023-02-13T10:13:51.693Z,50.62
2023-02-13T10:14:51.693Z,56.25
2023-02-13T10:15:51.673Z,56.25
2023-02-13T10:16:51.672Z,61.88
2023-02-13T10:17:51.660Z,61.88
2023-02-13T10:18:51.640Z,67.5
2023-02-13T10:19:51.659Z,67.5
2023-02-13T10:20:51.628Z,67.5
2023-02-13T10:21:51.615Z,67.5
2023-02-13T10:22:51.599Z,67.5
2023-02-13T10:23:51.664Z,67.5
2023-02-13T10:24:51.629Z,73.12
2023-02-13T10:25:51.565Z,73.12
2023-02-13T10:26:51.562Z,73.12
2023-02-13T10:27:51.543Z,73.12
2023-02-13T10:28:51.534Z,73.12
2023-02-13T10:29:51.532Z,73.12
2023-02-13T10:30:51.558Z,73.12
2023-02-13T10:31:51.505Z,73.12
2023-02-13T10:32:51.511Z,73.12
2023-02-13T10:33:51.503Z,73.12
2023-02-13T10:34:51.499Z,73.12
2023-02-13T10:35:51.463Z,73.12
2023-02-13T10:36:51.461Z,73.12
2023-02-13T10:37:51.449Z,73.12
2023-02-13T10:38:51.451Z,73.12
2023-02-13T10:39:51.422Z,73.12
2023-02-13T10:40:51.408Z,73.12
2023-02-13T10:41:51.399Z,73.12
2023-02-13T10:42:51.390Z,73.12
2023-02-13T10:43:51.372Z,73.12
2023-02-13T10:44:51.363Z,78.75
2023-02-13T10:45:51.381Z,78.75
2023-02-13T10:46:51.368Z,78.75
2023-02-13T10:47:51.333Z,78.75
2023-02-13T10:48:51.321Z,78.75
2023-02-13T10:49:51.308Z,78.75
2023-02-13T10:50:51.414Z,78.75
2023-02-13T10:51:51.294Z,78.75
2023-02-13T10:52:51.276Z,78.75
2023-02-13T10:53:51.270Z,78.75
2023-02-13T10:54:51.258Z,78.75
2023-02-13T10:55:51.264Z,78.75
2023-02-13T10:56:51.242Z,78.75
2023-02-13T10:57:51.234Z,78.75
2023-02-13T10:58:51.231Z,78.75
2023-02-13T10:59:51.205Z,78.75
2023-02-13T11:00:51.228Z,78.75
2023-02-13T11:01:51.184Z,78.75
2023-02-13T11:02:51.206Z,78.75
2023-02-13T11:03:51.201Z,78.75
2023-02-13T11:04:51.151Z,78.75
2023-02-13T11:05:51.147Z,84.38
2023-02-13T11:06:51.134Z,84.38
2023-02-13T11:07:51.115Z,84.38
2023-02-13T11:08:51.115Z,84.38
2023-02-13T11:09:51.101Z,84.38
2023-02-13T11:10:51.088Z,90
2023-02-13T11:11:51.092Z,90
2023-02-13T11:12:51.102Z,90
2023-02-13T11:13:51.056Z,84.38
2023-02-13T11:14:51.040Z,90
2023-02-13T11:15:51.061Z,90
2023-02-13T11:16:51.025Z,90
2023-02-13T11:17:51.008Z,90
2023-02-13T11:18:50.999Z,90
2023-02-13T11:19:50.997Z,90
2023-02-13T11:20:50.990Z,90
2023-02-13T11:21:50.965Z,90
2023-02-13T11:22:50.988Z,90
2023-02-13T11:23:50.946Z,95.62
2023-02-13T11:24:50.945Z,95.62
2023-02-13T11:25:50.924Z,95.62
2023-02-13T11:26:50.945Z,95.62
2023-02-13T11:27:50.900Z,95.62
2023-02-13T11:28:50.889Z,95.62
2023-02-13T11:29:50.945Z,95.62
2023-02-13T11:30:51.899Z,95.62
2023-02-13T11:31:50.856Z,95.62
2023-02-13T11:32:50.851Z,95.62
2023-02-13T11:33:50.844Z,95.62
2023-02-13T11:34:50.828Z,95.62
2023-02-13T11:35:50.913Z,95.62
2023-02-13T11:36:50.813Z,95.62
2023-02-13T11:37:50.804Z,95.62
2023-02-13T11:38:50.785Z,95.62
2023-02-13T11:39:50.779Z,101.25
2023-02-13T11:40:50.771Z,106.88
2023-02-13T11:41:50.752Z,106.88
2023-02-13T11:42:50.783Z,101.25
2023-02-13T11:43:50.736Z,95.62
2023-02-13T11:44:50.730Z,95.62
2023-02-13T11:45:50.725Z,95.62
2023-02-13T11:46:50.698Z,95.62
2023-02-13T11:56:35.164Z,101.25
2023-02-13T11:57:35.044Z,101.25
2023-02-13T11:58:35.990Z,106.88
2023-02-13T11:59:35.082Z,106.88
2023-02-13T12:00:34.936Z,106.88
2023-02-13T12:01:34.986Z,106.88
2023-02-13T12:02:35.001Z,101.25
2023-02-13T12:03:35.346Z,101.25
2023-02-13T17:23:46.820Z,0
2023-02-13T17:24:46.809Z,0
2023-02-13T17:25:46.761Z,0
2023-02-13T17:26:46.701Z,0
2023-02-13T17:27:46.685Z,0
2023-02-13T17:28:46.672Z,0
2023-02-13T17:29:46.841Z,0
2023-02-13T17:30:46.692Z,0
2023-02-13T17:31:46.647Z,0
2023-02-13T17:32:46.614Z,0
2023-02-13T17:33:46.663Z,0
2023-02-13T17:34:46.655Z,0
2023-02-13T17:35:46.595Z,0
2023-02-13T17:36:46.599Z,0
2023-02-13T17:37:46.578Z,0
2023-02-13T17:38:46.581Z,0
2023-02-13T17:39:46.596Z,0
2023-02-13T17:40:46.601Z,0
2023-02-13T17:41:46.548Z,0
2023-02-13T17:42:46.519Z,0
2023-02-13T17:43:46.511Z,0
2023-02-13T17:44:46.495Z,0
2023-02-13T17:45:46.485Z,0
2023-02-13T17:46:46.467Z,0
2023-02-13T17:47:46.454Z,0
2023-02-13T17:48:46.450Z,0
2023-02-13T17:49:46.453Z,0
2023-02-13T17:50:46.437Z,0
2023-02-13T17:51:46.431Z,0
2023-02-13T17:52:46.411Z,0
2023-02-13T17:53:46.408Z,0
2023-02-13T17:54:46.412Z,0
2023-02-13T17:55:46.383Z,0
2023-02-13T17:56:46.365Z,0
2023-02-13T17:57:46.379Z,0
2023-02-13T17:58:46.344Z,0
2023-02-13T17:59:46.336Z,0
2023-02-13T18:00:46.358Z,0
2023-02-13T18:01:46.336Z,0
2023-02-13T18:02:46.325Z,0
2023-02-13T18:03:46.308Z,0
2023-02-13T18:04:46.278Z,0
2023-02-13T18:05:46.293Z,0
2023-02-13T18:06:46.275Z,0
2023-02-13T18:07:46.268Z,0
2023-02-13T18:08:46.236Z,0
2023-02-13T18:09:46.246Z,0
2023-02-13T18:10:46.218Z,0
2023-02-13T18:11:46.202Z,0
2023-02-13T18:12:46.201Z,0
2023-02-13T18:13:46.185Z,0
2023-02-13T18:14:46.174Z,0
2023-02-13T18:15:46.185Z,0
2023-02-13T18:16:46.156Z,0
2023-02-13T18:17:46.150Z,0
2023-02-13T18:18:46.146Z,0
2023-02-13T18:19:46.123Z,0
2023-02-13T18:20:46.116Z,0
2023-02-13T18:21:46.115Z,0
2023-02-13T18:22:46.091Z,0
2023-02-13T18:23:46.093Z,0
2023-02-13T18:24:46.108Z,0
2023-02-13T18:25:46.076Z,0
2023-02-13T18:26:46.055Z,0
2023-02-13T18:27:46.036Z,0
2023-02-13T18:28:46.036Z,0
2023-02-13T18:29:46.011Z,0
2023-02-13T18:30:46.011Z,0
2023-02-13T18:31:46.004Z,0
2023-02-13T18:32:45.982Z,0
2023-02-13T18:33:46.029Z,0
2023-02-13T18:34:45.959Z,0
2023-02-13T18:35:45.950Z,0
2023-02-13T18:36:45.942Z,0
2023-02-13T18:37:45.965Z,0
2023-02-13T18:38:45.945Z,0
2023-02-13T18:39:45.944Z,0
2023-02-13T18:40:45.910Z,0
2023-02-13T18:41:45.890Z,0
2023-02-13T18:42:45.906Z,0
2023-02-13T18:43:45.937Z,0
2023-02-13T18:44:45.861Z,0
2023-02-13T18:45:45.861Z,0
2023-02-13T18:46:45.841Z,0
2023-02-13T18:47:45.824Z,0
2023-02-13T18:48:45.834Z,0
2023-02-13T18:49:45.813Z,0
2023-02-13T18:50:45.801Z,0
2023-02-13T18:51:45.784Z,0
2023-02-13T18:52:45.773Z,0
2023-02-13T18:53:45.761Z,0
2023-02-13T18:54:45.755Z,0
2023-02-13T18:55:45.741Z,0
2023-02-13T18:56:45.730Z,0
2023-02-13T18:57:45.728Z,0
2023-02-13T18:58:45.706Z,0
2023-02-13T18:59:45.707Z,0
2023-02-13T19:00:45.693Z,0
2023-02-13T19:01:45.694Z,0
2023-02-13T19:02:45.663Z,0
2023-02-13T19:03:45.671Z,0
2023-02-13T19:18:15.027Z,0
2023-02-13T19:19:15.030Z,0
2023-02-13T19:20:14.999Z,0
2023-02-13T19:21:14.989Z,0
2023-02-13T19:22:14.980Z,0
2023-02-13T19:23:14.967Z,0
2023-02-13T19:24:14.951Z,0
2023-02-13T19:25:14.950Z,0
2023-02-13T19:26:14.938Z,0
2023-02-13T19:27:14.943Z,0
2023-02-13T19:28:14.939Z,0
2023-02-13T19:29:14.906Z,0
2023-02-13T19:30:14.897Z,0
2023-02-13T19:31:14.905Z,0
2023-02-13T19:32:14.869Z,0
2023-02-13T19:33:14.927Z,0
2023-02-13T19:34:14.868Z,0
2023-02-13T19:35:14.837Z,0
2023-02-13T19:36:14.851Z,0
2023-02-13T19:37:14.825Z,0
2023-02-13T19:38:14.829Z,0
2023-02-13T19:39:14.808Z,0
2023-02-13T19:40:14.790Z,0
2023-02-13T19:41:14.774Z,0
2023-02-13T19:42:14.767Z,0
2023-02-13T19:43:14.770Z,0
2023-02-13T19:44:14.743Z,0
2023-02-13T19:45:14.767Z,0
2023-02-13T19:46:14.737Z,0
2023-02-13T19:47:14.709Z,0
2023-02-13T19:48:14.707Z,0
2023-02-13T19:49:14.692Z,0
2023-02-13T19:50:14.679Z,0
2023-02-13T19:51:14.675Z,0
2023-02-13T19:52:14.674Z,0
2023-02-13T19:53:14.661Z,0